sensor_id;sensor_type;location;lat;lon;timestamp;P1;durP1;ratioP1;P2;durP2;ratioP2
25952;SDS011;13750;50.804;8.764;2022-07-06T00:01:33;2.80;;;1.40;;
25952;SDS011;13750;50.804;8.764;2022-07-06T00:03:59;1.90;;;1.20;;
25952;SDS011;13750;50.804;8.764;2022-07-06T00:06:26;1.15;;;1.05;;
25952;SDS011;13750;50.804;8.764;2022-07-06T00:08:52;1.67;;;0.90;;
25952;SDS011;13750;50.804;8.764;2022-07-06T00:11:17;2.23;;;1.10;;
25952;SDS011;13750;50.804;8.764;2022-07-06T00:13:43;1.47;;;0.80;;
25952;SDS011;13750;50.804;8.764;2022-07-06T00:16:09;0.83;;;0.83;;
25952;SDS011;13750;50.804;8.764;2022-07-06T00:18:34;0.80;;;0.80;;
25952;SDS011;13750;50.804;8.764;2022-07-06T00:21:00;1.10;;;0.90;;
25952;SDS011;13750;50.804;8.764;2022-07-06T00:23:25;0.60;;;0.60;;
25952;SDS011;13750;50.804;8.764;2022-07-06T00:25:51;0.80;;;0.70;;
25952;SDS011;13750;50.804;8.764;2022-07-06T00:28:17;0.80;;;0.70;;
25952;SDS011;13750;50.804;8.764;2022-07-06T00:30:42;0.97;;;0.60;;
25952;SDS011;13750;50.804;8.764;2022-07-06T00:33:08;0.80;;;0.80;;
25952;SDS011;13750;50.804;8.764;2022-07-06T00:35:34;1.10;;;0.70;;
25952;SDS011;13750;50.804;8.764;2022-07-06T00:38:00;0.52;;;0.52;;
25952;SDS011;13750;50.804;8.764;2022-07-06T00:40:25;0.80;;;0.80;;
25952;SDS011;13750;50.804;8.764;2022-07-06T00:42:52;0.80;;;0.80;;
25952;SDS011;13750;50.804;8.764;2022-07-06T00:45:18;0.80;;;0.80;;
25952;SDS011;13750;50.804;8.764;2022-07-06T00:47:43;1.52;;;0.80;;
25952;SDS011;13750;50.804;8.764;2022-07-06T00:50:11;1.08;;;0.98;;
25952;SDS011;13750;50.804;8.764;2022-07-06T00:52:47;0.77;;;0.70;;
25952;SDS011;13750;50.804;8.764;2022-07-06T00:55:21;0.93;;;0.85;;
25952;SDS011;13750;50.804;8.764;2022-07-06T00:57:48;0.90;;;0.60;;
25952;SDS011;13750;50.804;8.764;2022-07-06T01:00:15;0.80;;;0.80;;
25952;SDS011;13750;50.804;8.764;2022-07-06T01:02:43;0.98;;;0.88;;
25952;SDS011;13750;50.804;8.764;2022-07-06T01:05:10;1.30;;;1.20;;
25952;SDS011;13750;50.804;8.764;2022-07-06T01:07:38;1.00;;;0.90;;
25952;SDS011;13750;50.804;8.764;2022-07-06T01:10:06;0.73;;;0.73;;
25952;SDS011;13750;50.804;8.764;2022-07-06T01:12:36;1.33;;;0.75;;
25952;SDS011;13750;50.804;8.764;2022-07-06T01:15:03;0.70;;;0.68;;
25952;SDS011;13750;50.804;8.764;2022-07-06T01:17:30;0.82;;;0.82;;
25952;SDS011;13750;50.804;8.764;2022-07-06T01:22:35;1.17;;;1.08;;
25952;SDS011;13750;50.804;8.764;2022-07-06T01:25:01;0.87;;;0.87;;
25952;SDS011;13750;50.804;8.764;2022-07-06T01:27:27;0.90;;;0.90;;
25952;SDS011;13750;50.804;8.764;2022-07-06T01:29:52;0.70;;;0.70;;
25952;SDS011;13750;50.804;8.764;2022-07-06T01:32:18;0.77;;;0.70;;
25952;SDS011;13750;50.804;8.764;2022-07-06T01:34:43;0.80;;;0.80;;
25952;SDS011;13750;50.804;8.764;2022-07-06T01:37:09;1.20;;;1.03;;
25952;SDS011;13750;50.804;8.764;2022-07-06T01:39:35;1.33;;;1.03;;
25952;SDS011;13750;50.804;8.764;2022-07-06T01:42:00;1.17;;;0.83;;
25952;SDS011;13750;50.804;8.764;2022-07-06T01:44:26;0.80;;;0.80;;
25952;SDS011;13750;50.804;8.764;2022-07-06T01:46:51;0.70;;;0.70;;
25952;SDS011;13750;50.804;8.764;2022-07-06T01:49:17;0.93;;;0.70;;
25952;SDS011;13750;50.804;8.764;2022-07-06T01:51:42;0.80;;;0.80;;
25952;SDS011;13750;50.804;8.764;2022-07-06T01:54:08;0.60;;;0.60;;
25952;SDS011;13750;50.804;8.764;2022-07-06T01:56:34;1.37;;;1.00;;
25952;SDS011;13750;50.804;8.764;2022-07-06T01:58:59;0.93;;;0.80;;
25952;SDS011;13750;50.804;8.764;2022-07-06T02:01:25;2.47;;;1.00;;
25952;SDS011;13750;50.804;8.764;2022-07-06T02:03:50;1.00;;;0.90;;
25952;SDS011;13750;50.804;8.764;2022-07-06T02:06:16;1.20;;;1.03;;
25952;SDS011;13750;50.804;8.764;2022-07-06T02:08:42;1.00;;;0.80;;
25952;SDS011;13750;50.804;8.764;2022-07-06T02:11:08;1.20;;;1.10;;
25952;SDS011;13750;50.804;8.764;2022-07-06T02:13:35;0.77;;;0.77;;
25952;SDS011;13750;50.804;8.764;2022-07-06T02:16:01;1.00;;;0.90;;
25952;SDS011;13750;50.804;8.764;2022-07-06T02:18:27;0.65;;;0.65;;
25952;SDS011;13750;50.804;8.764;2022-07-06T02:20:53;0.97;;;0.80;;
25952;SDS011;13750;50.804;8.764;2022-07-06T02:23:19;1.60;;;1.10;;
25952;SDS011;13750;50.804;8.764;2022-07-06T02:25:44;1.53;;;1.43;;
25952;SDS011;13750;50.804;8.764;2022-07-06T02:28:10;2.53;;;1.40;;
25952;SDS011;13750;50.804;8.764;2022-07-06T02:30:36;1.50;;;1.40;;
25952;SDS011;13750;50.804;8.764;2022-07-06T02:33:01;1.50;;;1.27;;
25952;SDS011;13750;50.804;8.764;2022-07-06T02:35:27;1.20;;;1.00;;
25952;SDS011;13750;50.804;8.764;2022-07-06T02:37:53;1.20;;;1.10;;
25952;SDS011;13750;50.804;8.764;2022-07-06T02:40:18;1.57;;;0.97;;
25952;SDS011;13750;50.804;8.764;2022-07-06T02:42:44;0.77;;;0.77;;
25952;SDS011;13750;50.804;8.764;2022-07-06T02:45:10;0.90;;;0.90;;
25952;SDS011;13750;50.804;8.764;2022-07-06T02:47:35;0.87;;;0.87;;
25952;SDS011;13750;50.804;8.764;2022-07-06T02:50:03;1.10;;;1.00;;
25952;SDS011;13750;50.804;8.764;2022-07-06T02:52:29;0.80;;;0.80;;
25952;SDS011;13750;50.804;8.764;2022-07-06T02:54:54;0.67;;;0.67;;
25952;SDS011;13750;50.804;8.764;2022-07-06T02:57:20;1.23;;;0.80;;
25952;SDS011;13750;50.804;8.764;2022-07-06T02:59:46;1.07;;;0.80;;
25952;SDS011;13750;50.804;8.764;2022-07-06T03:02:14;0.85;;;0.70;;
25952;SDS011;13750;50.804;8.764;2022-07-06T03:04:41;1.00;;;0.75;;
25952;SDS011;13750;50.804;8.764;2022-07-06T03:07:06;0.77;;;0.77;;
25952;SDS011;13750;50.804;8.764;2022-07-06T03:09:32;1.90;;;0.70;;
25952;SDS011;13750;50.804;8.764;2022-07-06T03:11:58;0.83;;;0.70;;
25952;SDS011;13750;50.804;8.764;2022-07-06T03:14:23;0.60;;;0.60;;
25952;SDS011;13750;50.804;8.764;2022-07-06T03:16:50;0.68;;;0.68;;
25952;SDS011;13750;50.804;8.764;2022-07-06T03:19:16;1.40;;;0.70;;
25952;SDS011;13750;50.804;8.764;2022-07-06T03:21:42;0.80;;;0.80;;
25952;SDS011;13750;50.804;8.764;2022-07-06T03:24:08;0.70;;;0.70;;
25952;SDS011;13750;50.804;8.764;2022-07-06T03:26:33;0.80;;;0.70;;
25952;SDS011;13750;50.804;8.764;2022-07-06T03:28:59;0.70;;;0.70;;
25952;SDS011;13750;50.804;8.764;2022-07-06T03:31:25;1.03;;;0.90;;
25952;SDS011;13750;50.804;8.764;2022-07-06T03:33:51;1.10;;;0.80;;
25952;SDS011;13750;50.804;8.764;2022-07-06T03:36:16;0.60;;;0.60;;
25952;SDS011;13750;50.804;8.764;2022-07-06T03:38:42;0.90;;;0.70;;
25952;SDS011;13750;50.804;8.764;2022-07-06T03:41:08;0.80;;;0.80;;
25952;SDS011;13750;50.804;8.764;2022-07-06T03:43:34;1.27;;;0.80;;
25952;SDS011;13750;50.804;8.764;2022-07-06T03:45:59;1.37;;;0.80;;
25952;SDS011;13750;50.804;8.764;2022-07-06T03:48:25;0.80;;;0.70;;
25952;SDS011;13750;50.804;8.764;2022-07-06T03:50:51;1.77;;;0.90;;
25952;SDS011;13750;50.804;8.764;2022-07-06T03:53:17;0.80;;;0.80;;
25952;SDS011;13750;50.804;8.764;2022-07-06T03:55:42;1.37;;;0.70;;
25952;SDS011;13750;50.804;8.764;2022-07-06T03:58:28;1.17;;;0.85;;
25952;SDS011;13750;50.804;8.764;2022-07-06T04:00:54;1.20;;;0.90;;
25952;SDS011;13750;50.804;8.764;2022-07-06T04:03:20;0.60;;;0.60;;
25952;SDS011;13750;50.804;8.764;2022-07-06T04:05:45;0.60;;;0.60;;
25952;SDS011;13750;50.804;8.764;2022-07-06T04:08:11;0.80;;;0.80;;
25952;SDS011;13750;50.804;8.764;2022-07-06T04:10:36;0.83;;;0.83;;
25952;SDS011;13750;50.804;8.764;2022-07-06T04:13:02;1.10;;;1.00;;
25952;SDS011;13750;50.804;8.764;2022-07-06T04:15:28;1.23;;;1.00;;
25952;SDS011;13750;50.804;8.764;2022-07-06T04:17:53;1.43;;;1.00;;
25952;SDS011;13750;50.804;8.764;2022-07-06T04:20:20;1.08;;;0.98;;
25952;SDS011;13750;50.804;8.764;2022-07-06T04:22:47;2.25;;;1.10;;
25952;SDS011;13750;50.804;8.764;2022-07-06T04:25:12;2.33;;;1.30;;
25952;SDS011;13750;50.804;8.764;2022-07-06T04:27:38;1.97;;;1.13;;
25952;SDS011;13750;50.804;8.764;2022-07-06T04:30:04;1.30;;;1.03;;
25952;SDS011;13750;50.804;8.764;2022-07-06T04:34:56;1.13;;;0.88;;
25952;SDS011;13750;50.804;8.764;2022-07-06T04:37:22;0.87;;;0.70;;
25952;SDS011;13750;50.804;8.764;2022-07-06T04:39:47;1.10;;;0.80;;
25952;SDS011;13750;50.804;8.764;2022-07-06T04:42:13;0.70;;;0.70;;
25952;SDS011;13750;50.804;8.764;2022-07-06T04:44:39;0.67;;;0.60;;
25952;SDS011;13750;50.804;8.764;2022-07-06T04:47:04;1.80;;;0.80;;
25952;SDS011;13750;50.804;8.764;2022-07-06T04:49:30;1.17;;;0.80;;
25952;SDS011;13750;50.804;8.764;2022-07-06T04:51:56;1.60;;;0.63;;
25952;SDS011;13750;50.804;8.764;2022-07-06T04:54:22;0.73;;;0.73;;
25952;SDS011;13750;50.804;8.764;2022-07-06T04:56:47;0.97;;;0.73;;
25952;SDS011;13750;50.804;8.764;2022-07-06T04:59:13;0.70;;;0.70;;
25952;SDS011;13750;50.804;8.764;2022-07-06T05:01:39;1.00;;;0.70;;
25952;SDS011;13750;50.804;8.764;2022-07-06T05:04:05;0.65;;;0.65;;
25952;SDS011;13750;50.804;8.764;2022-07-06T05:06:32;0.70;;;0.60;;
25952;SDS011;13750;50.804;8.764;2022-07-06T05:08:57;0.60;;;0.60;;
25952;SDS011;13750;50.804;8.764;2022-07-06T05:13:50;0.70;;;0.60;;
25952;SDS011;13750;50.804;8.764;2022-07-06T05:16:16;0.80;;;0.80;;
25952;SDS011;13750;50.804;8.764;2022-07-06T05:18:41;1.57;;;1.20;;
25952;SDS011;13750;50.804;8.764;2022-07-06T05:21:07;1.00;;;0.90;;
25952;SDS011;13750;50.804;8.764;2022-07-06T05:23:33;2.27;;;1.00;;
25952;SDS011;13750;50.804;8.764;2022-07-06T05:25:59;1.95;;;1.27;;
25952;SDS011;13750;50.804;8.764;2022-07-06T05:28:24;1.30;;;1.10;;
25952;SDS011;13750;50.804;8.764;2022-07-06T05:30:50;1.20;;;1.10;;
25952;SDS011;13750;50.804;8.764;2022-07-06T05:33:16;1.33;;;1.10;;
25952;SDS011;13750;50.804;8.764;2022-07-06T05:35:41;1.47;;;1.30;;
25952;SDS011;13750;50.804;8.764;2022-07-06T05:38:07;2.43;;;1.03;;
25952;SDS011;13750;50.804;8.764;2022-07-06T05:40:33;1.00;;;0.90;;
25952;SDS011;13750;50.804;8.764;2022-07-06T05:42:58;1.67;;;1.00;;
25952;SDS011;13750;50.804;8.764;2022-07-06T05:45:24;1.33;;;0.63;;
25952;SDS011;13750;50.804;8.764;2022-07-06T05:47:50;1.23;;;1.10;;
25952;SDS011;13750;50.804;8.764;2022-07-06T05:50:34;0.82;;;0.82;;
25952;SDS011;13750;50.804;8.764;2022-07-06T05:53:01;1.07;;;0.80;;
25952;SDS011;13750;50.804;8.764;2022-07-06T05:55:29;1.50;;;1.20;;
25952;SDS011;13750;50.804;8.764;2022-07-06T05:57:55;2.13;;;1.60;;
25952;SDS011;13750;50.804;8.764;2022-07-06T06:00:21;2.50;;;1.33;;
25952;SDS011;13750;50.804;8.764;2022-07-06T06:02:47;1.48;;;1.20;;
25952;SDS011;13750;50.804;8.764;2022-07-06T06:05:13;1.30;;;1.20;;
25952;SDS011;13750;50.804;8.764;2022-07-06T06:07:40;0.95;;;0.88;;
25952;SDS011;13750;50.804;8.764;2022-07-06T06:10:07;2.87;;;1.40;;
25952;SDS011;13750;50.804;8.764;2022-07-06T06:12:34;1.80;;;1.38;;
25952;SDS011;13750;50.804;8.764;2022-07-06T06:15:00;1.57;;;1.30;;
25952;SDS011;13750;50.804;8.764;2022-07-06T06:19:52;1.30;;;1.17;;
25952;SDS011;13750;50.804;8.764;2022-07-06T06:22:18;1.57;;;1.00;;
25952;SDS011;13750;50.804;8.764;2022-07-06T06:24:44;1.30;;;1.10;;
25952;SDS011;13750;50.804;8.764;2022-07-06T06:27:09;1.37;;;1.10;;
25952;SDS011;13750;50.804;8.764;2022-07-06T06:29:35;3.30;;;1.57;;
25952;SDS011;13750;50.804;8.764;2022-07-06T06:32:01;1.20;;;1.10;;
25952;SDS011;13750;50.804;8.764;2022-07-06T06:34:26;1.33;;;1.23;;
25952;SDS011;13750;50.804;8.764;2022-07-06T06:36:52;1.10;;;1.00;;
25952;SDS011;13750;50.804;8.764;2022-07-06T06:39:18;3.37;;;1.27;;
25952;SDS011;13750;50.804;8.764;2022-07-06T06:41:44;1.83;;;0.97;;
25952;SDS011;13750;50.804;8.764;2022-07-06T06:44:09;2.40;;;1.70;;
25952;SDS011;13750;50.804;8.764;2022-07-06T06:46:35;1.67;;;1.57;;
25952;SDS011;13750;50.804;8.764;2022-07-06T06:49:00;2.97;;;1.87;;
25952;SDS011;13750;50.804;8.764;2022-07-06T06:51:26;2.30;;;1.43;;
25952;SDS011;13750;50.804;8.764;2022-07-06T06:53:52;2.27;;;1.67;;
25952;SDS011;13750;50.804;8.764;2022-07-06T06:56:17;2.60;;;1.50;;
25952;SDS011;13750;50.804;8.764;2022-07-06T06:58:43;1.50;;;1.17;;
25952;SDS011;13750;50.804;8.764;2022-07-06T07:01:09;3.92;;;1.80;;
25952;SDS011;13750;50.804;8.764;2022-07-06T07:03:35;3.30;;;1.93;;
25952;SDS011;13750;50.804;8.764;2022-07-06T07:06:01;2.20;;;1.87;;
25952;SDS011;13750;50.804;8.764;2022-07-06T07:08:27;2.67;;;1.37;;
25952;SDS011;13750;50.804;8.764;2022-07-06T07:10:52;1.40;;;1.27;;
25952;SDS011;13750;50.804;8.764;2022-07-06T07:13:18;2.20;;;1.40;;
25952;SDS011;13750;50.804;8.764;2022-07-06T07:15:44;2.57;;;1.70;;
25952;SDS011;13750;50.804;8.764;2022-07-06T07:18:09;2.80;;;1.50;;
25952;SDS011;13750;50.804;8.764;2022-07-06T07:20:35;1.83;;;1.67;;
25952;SDS011;13750;50.804;8.764;2022-07-06T07:23:01;1.50;;;1.30;;
25952;SDS011;13750;50.804;8.764;2022-07-06T07:25:27;1.73;;;1.47;;
25952;SDS011;13750;50.804;8.764;2022-07-06T07:27:52;1.50;;;1.40;;
25952;SDS011;13750;50.804;8.764;2022-07-06T07:30:18;1.63;;;1.52;;
25952;SDS011;13750;50.804;8.764;2022-07-06T07:32:44;2.63;;;1.33;;
25952;SDS011;13750;50.804;8.764;2022-07-06T07:35:10;1.47;;;1.20;;
25952;SDS011;13750;50.804;8.764;2022-07-06T07:37:36;1.75;;;1.48;;
25952;SDS011;13750;50.804;8.764;2022-07-06T07:40:02;2.07;;;1.67;;
25952;SDS011;13750;50.804;8.764;2022-07-06T07:42:29;1.92;;;1.70;;
25952;SDS011;13750;50.804;8.764;2022-07-06T07:44:55;2.77;;;1.63;;
25952;SDS011;13750;50.804;8.764;2022-07-06T07:47:20;1.97;;;1.70;;
25952;SDS011;13750;50.804;8.764;2022-07-06T07:49:46;1.20;;;1.20;;
25952;SDS011;13750;50.804;8.764;2022-07-06T07:52:12;2.10;;;1.60;;
25952;SDS011;13750;50.804;8.764;2022-07-06T07:54:41;1.60;;;1.50;;
25952;SDS011;13750;50.804;8.764;2022-07-06T07:57:06;1.60;;;1.35;;
25952;SDS011;13750;50.804;8.764;2022-07-06T07:59:35;1.30;;;1.20;;
25952;SDS011;13750;50.804;8.764;2022-07-06T08:02:04;1.17;;;1.10;;
25952;SDS011;13750;50.804;8.764;2022-07-06T08:04:32;1.93;;;1.50;;
25952;SDS011;13750;50.804;8.764;2022-07-06T08:06:57;3.60;;;1.90;;
25952;SDS011;13750;50.804;8.764;2022-07-06T08:09:23;2.57;;;1.27;;
25952;SDS011;13750;50.804;8.764;2022-07-06T08:11:49;1.20;;;1.10;;
25952;SDS011;13750;50.804;8.764;2022-07-06T08:14:20;3.17;;;1.80;;
25952;SDS011;13750;50.804;8.764;2022-07-06T08:16:46;1.60;;;1.50;;
25952;SDS011;13750;50.804;8.764;2022-07-06T08:19:11;1.63;;;1.53;;
25952;SDS011;13750;50.804;8.764;2022-07-06T08:21:40;1.50;;;1.40;;
25952;SDS011;13750;50.804;8.764;2022-07-06T08:24:06;1.53;;;1.43;;
25952;SDS011;13750;50.804;8.764;2022-07-06T08:26:32;1.50;;;1.40;;
25952;SDS011;13750;50.804;8.764;2022-07-06T08:28:58;4.50;;;1.77;;
25952;SDS011;13750;50.804;8.764;2022-07-06T08:31:24;1.60;;;1.30;;
25952;SDS011;13750;50.804;8.764;2022-07-06T08:33:50;1.60;;;1.40;;
25952;SDS011;13750;50.804;8.764;2022-07-06T08:36:18;2.28;;;1.38;;
25952;SDS011;13750;50.804;8.764;2022-07-06T08:38:44;2.42;;;1.30;;
25952;SDS011;13750;50.804;8.764;2022-07-06T08:41:10;1.00;;;0.80;;
25952;SDS011;13750;50.804;8.764;2022-07-06T08:43:36;1.98;;;0.98;;
25952;SDS011;13750;50.804;8.764;2022-07-06T08:46:02;1.87;;;1.30;;
25952;SDS011;13750;50.804;8.764;2022-07-06T08:48:31;1.00;;;0.90;;
25952;SDS011;13750;50.804;8.764;2022-07-06T08:51:04;1.08;;;0.98;;
25952;SDS011;13750;50.804;8.764;2022-07-06T08:53:30;1.33;;;1.23;;
25952;SDS011;13750;50.804;8.764;2022-07-06T08:55:55;2.00;;;1.00;;
25952;SDS011;13750;50.804;8.764;2022-07-06T08:58:25;1.43;;;0.80;;
25952;SDS011;13750;50.804;8.764;2022-07-06T09:00:54;2.35;;;0.90;;
25952;SDS011;13750;50.804;8.764;2022-07-06T09:03:20;0.93;;;0.80;;
25952;SDS011;13750;50.804;8.764;2022-07-06T09:05:46;0.90;;;0.80;;
25952;SDS011;13750;50.804;8.764;2022-07-06T09:08:13;0.88;;;0.88;;
25952;SDS011;13750;50.804;8.764;2022-07-06T09:10:38;0.87;;;0.60;;
25952;SDS011;13750;50.804;8.764;2022-07-06T09:13:05;2.00;;;0.70;;
25952;SDS011;13750;50.804;8.764;2022-07-06T09:15:33;1.33;;;0.80;;
25952;SDS011;13750;50.804;8.764;2022-07-06T09:18:00;1.15;;;0.80;;
25952;SDS011;13750;50.804;8.764;2022-07-06T09:20:27;1.42;;;0.75;;
25952;SDS011;13750;50.804;8.764;2022-07-06T09:22:59;1.17;;;0.80;;
25952;SDS011;13750;50.804;8.764;2022-07-06T09:25:26;0.70;;;0.70;;
25952;SDS011;13750;50.804;8.764;2022-07-06T09:27:52;1.77;;;0.80;;
25952;SDS011;13750;50.804;8.764;2022-07-06T09:30:22;1.00;;;0.65;;
25952;SDS011;13750;50.804;8.764;2022-07-06T09:32:49;0.80;;;0.75;;
25952;SDS011;13750;50.804;8.764;2022-07-06T09:35:23;1.02;;;0.77;;
25952;SDS011;13750;50.804;8.764;2022-07-06T09:38:01;1.30;;;0.70;;
25952;SDS011;13750;50.804;8.764;2022-07-06T09:40:31;2.42;;;1.02;;
25952;SDS011;13750;50.804;8.764;2022-07-06T09:43:08;1.27;;;0.73;;
25952;SDS011;13750;50.804;8.764;2022-07-06T09:45:35;0.70;;;0.60;;
25952;SDS011;13750;50.804;8.764;2022-07-06T09:48:05;0.52;;;0.50;;
25952;SDS011;13750;50.804;8.764;2022-07-06T09:50:42;0.85;;;0.60;;
25952;SDS011;13750;50.804;8.764;2022-07-06T09:53:10;0.75;;;0.50;;
25952;SDS011;13750;50.804;8.764;2022-07-06T09:55:36;1.05;;;0.70;;
25952;SDS011;13750;50.804;8.764;2022-07-06T09:58:02;0.93;;;0.67;;
25952;SDS011;13750;50.804;8.764;2022-07-06T10:00:28;1.08;;;0.60;;
25952;SDS011;13750;50.804;8.764;2022-07-06T10:02:54;0.93;;;0.70;;
25952;SDS011;13750;50.804;8.764;2022-07-06T10:05:20;0.57;;;0.57;;
25952;SDS011;13750;50.804;8.764;2022-07-06T10:07:55;0.70;;;0.70;;
25952;SDS011;13750;50.804;8.764;2022-07-06T10:10:27;0.90;;;0.50;;
25952;SDS011;13750;50.804;8.764;2022-07-06T10:12:55;0.77;;;0.60;;
25952;SDS011;13750;50.804;8.764;2022-07-06T10:15:25;1.52;;;0.70;;
25952;SDS011;13750;50.804;8.764;2022-07-06T10:17:52;1.42;;;0.50;;
25952;SDS011;13750;50.804;8.764;2022-07-06T10:20:19;1.30;;;0.70;;
25952;SDS011;13750;50.804;8.764;2022-07-06T10:25:15;0.65;;;0.60;;
25952;SDS011;13750;50.804;8.764;2022-07-06T10:27:42;0.77;;;0.50;;
25952;SDS011;13750;50.804;8.764;2022-07-06T10:30:09;0.80;;;0.50;;
25952;SDS011;13750;50.804;8.764;2022-07-06T10:32:36;0.75;;;0.40;;
25952;SDS011;13750;50.804;8.764;2022-07-06T10:35:04;1.02;;;0.70;;
25952;SDS011;13750;50.804;8.764;2022-07-06T10:37:31;1.23;;;0.60;;
25952;SDS011;13750;50.804;8.764;2022-07-06T10:39:58;0.98;;;0.88;;
25952;SDS011;13750;50.804;8.764;2022-07-06T10:45:10;1.60;;;0.70;;
25952;SDS011;13750;50.804;8.764;2022-07-06T10:47:37;0.50;;;0.50;;
25952;SDS011;13750;50.804;8.764;2022-07-06T10:50:04;0.70;;;0.52;;
25952;SDS011;13750;50.804;8.764;2022-07-06T10:57:55;0.50;;;0.40;;
25952;SDS011;13750;50.804;8.764;2022-07-06T11:00:21;0.57;;;0.50;;
25952;SDS011;13750;50.804;8.764;2022-07-06T11:02:46;0.73;;;0.57;;
25952;SDS011;13750;50.804;8.764;2022-07-06T11:05:12;1.30;;;0.57;;
25952;SDS011;13750;50.804;8.764;2022-07-06T11:08:10;1.70;;;0.60;;
25952;SDS011;13750;50.804;8.764;2022-07-06T11:10:46;1.63;;;0.57;;
25952;SDS011;13750;50.804;8.764;2022-07-06T11:13:28;0.95;;;0.77;;
25952;SDS011;13750;50.804;8.764;2022-07-06T11:16:00;0.40;;;0.40;;
25952;SDS011;13750;50.804;8.764;2022-07-06T11:18:28;0.50;;;0.50;;
25952;SDS011;13750;50.804;8.764;2022-07-06T11:21:16;0.50;;;0.50;;
25952;SDS011;13750;50.804;8.764;2022-07-06T11:23:42;0.40;;;0.40;;
25952;SDS011;13750;50.804;8.764;2022-07-06T11:26:10;0.47;;;0.40;;
25952;SDS011;13750;50.804;8.764;2022-07-06T11:28:37;0.95;;;0.50;;
25952;SDS011;13750;50.804;8.764;2022-07-06T11:31:03;1.02;;;0.43;;
25952;SDS011;13750;50.804;8.764;2022-07-06T11:33:29;0.50;;;0.40;;
25952;SDS011;13750;50.804;8.764;2022-07-06T11:38:56;0.93;;;0.50;;
25952;SDS011;13750;50.804;8.764;2022-07-06T11:41:23;0.70;;;0.50;;
25952;SDS011;13750;50.804;8.764;2022-07-06T11:43:48;0.70;;;0.50;;
25952;SDS011;13750;50.804;8.764;2022-07-06T11:46:26;0.95;;;0.55;;
25952;SDS011;13750;50.804;8.764;2022-07-06T11:49:00;1.05;;;0.70;;
25952;SDS011;13750;50.804;8.764;2022-07-06T11:51:29;0.70;;;0.70;;
25952;SDS011;13750;50.804;8.764;2022-07-06T11:53:56;1.70;;;0.60;;
25952;SDS011;13750;50.804;8.764;2022-07-06T11:56:26;2.08;;;0.70;;
25952;SDS011;13750;50.804;8.764;2022-07-06T11:58:54;0.55;;;0.50;;
25952;SDS011;13750;50.804;8.764;2022-07-06T12:01:21;2.90;;;0.80;;
25952;SDS011;13750;50.804;8.764;2022-07-06T12:03:49;0.57;;;0.57;;
25952;SDS011;13750;50.804;8.764;2022-07-06T12:06:25;1.67;;;0.63;;
25952;SDS011;13750;50.804;8.764;2022-07-06T12:08:52;0.50;;;0.50;;
25952;SDS011;13750;50.804;8.764;2022-07-06T12:11:23;0.50;;;0.50;;
25952;SDS011;13750;50.804;8.764;2022-07-06T12:13:55;0.60;;;0.60;;
25952;SDS011;13750;50.804;8.764;2022-07-06T12:16:28;0.60;;;0.60;;
25952;SDS011;13750;50.804;8.764;2022-07-06T12:19:03;0.45;;;0.43;;
25952;SDS011;13750;50.804;8.764;2022-07-06T12:21:29;1.73;;;0.77;;
25952;SDS011;13750;50.804;8.764;2022-07-06T12:23:58;0.60;;;0.60;;
25952;SDS011;13750;50.804;8.764;2022-07-06T12:26:40;1.08;;;0.60;;
25952;SDS011;13750;50.804;8.764;2022-07-06T12:29:10;0.65;;;0.50;;
25952;SDS011;13750;50.804;8.764;2022-07-06T12:31:43;0.70;;;0.70;;
25952;SDS011;13750;50.804;8.764;2022-07-06T12:36:49;1.35;;;0.80;;
25952;SDS011;13750;50.804;8.764;2022-07-06T12:39:17;1.85;;;0.70;;
25952;SDS011;13750;50.804;8.764;2022-07-06T12:41:47;0.93;;;0.40;;
25952;SDS011;13750;50.804;8.764;2022-07-06T12:44:21;0.98;;;0.80;;
25952;SDS011;13750;50.804;8.764;2022-07-06T12:46:47;2.72;;;0.88;;
25952;SDS011;13750;50.804;8.764;2022-07-06T12:52:09;0.63;;;0.63;;
25952;SDS011;13750;50.804;8.764;2022-07-06T12:57:14;0.75;;;0.57;;
25952;SDS011;13750;50.804;8.764;2022-07-06T12:59:44;0.50;;;0.40;;
25952;SDS011;13750;50.804;8.764;2022-07-06T13:02:24;3.35;;;0.80;;
25952;SDS011;13750;50.804;8.764;2022-07-06T13:05:01;1.38;;;0.60;;
25952;SDS011;13750;50.804;8.764;2022-07-06T13:07:29;0.50;;;0.50;;
25952;SDS011;13750;50.804;8.764;2022-07-06T13:09:57;1.40;;;0.50;;
25952;SDS011;13750;50.804;8.764;2022-07-06T13:12:23;0.80;;;0.63;;
25952;SDS011;13750;50.804;8.764;2022-07-06T13:14:49;0.60;;;0.60;;
25952;SDS011;13750;50.804;8.764;2022-07-06T13:17:15;1.63;;;0.80;;
25952;SDS011;13750;50.804;8.764;2022-07-06T13:19:41;0.87;;;0.70;;
25952;SDS011;13750;50.804;8.764;2022-07-06T13:22:07;1.67;;;0.70;;
25952;SDS011;13750;50.804;8.764;2022-07-06T13:24:33;0.67;;;0.67;;
25952;SDS011;13750;50.804;8.764;2022-07-06T13:26:58;0.63;;;0.63;;
25952;SDS011;13750;50.804;8.764;2022-07-06T13:29:24;1.63;;;0.80;;
25952;SDS011;13750;50.804;8.764;2022-07-06T13:31:50;1.10;;;0.67;;
25952;SDS011;13750;50.804;8.764;2022-07-06T13:34:16;0.97;;;0.80;;
25952;SDS011;13750;50.804;8.764;2022-07-06T13:36:41;0.70;;;0.53;;
25952;SDS011;13750;50.804;8.764;2022-07-06T13:39:07;0.85;;;0.70;;
25952;SDS011;13750;50.804;8.764;2022-07-06T13:41:33;0.80;;;0.63;;
25952;SDS011;13750;50.804;8.764;2022-07-06T13:43:59;0.60;;;0.60;;
25952;SDS011;13750;50.804;8.764;2022-07-06T13:46:28;1.23;;;0.60;;
25952;SDS011;13750;50.804;8.764;2022-07-06T13:48:56;0.82;;;0.77;;
25952;SDS011;13750;50.804;8.764;2022-07-06T13:53:48;0.60;;;0.60;;
25952;SDS011;13750;50.804;8.764;2022-07-06T13:56:14;0.70;;;0.67;;
25952;SDS011;13750;50.804;8.764;2022-07-06T13:58:40;0.60;;;0.60;;
25952;SDS011;13750;50.804;8.764;2022-07-06T14:01:06;1.23;;;0.60;;
25952;SDS011;13750;50.804;8.764;2022-07-06T14:03:32;0.90;;;0.70;;
25952;SDS011;13750;50.804;8.764;2022-07-06T14:05:58;0.80;;;0.67;;
25952;SDS011;13750;50.804;8.764;2022-07-06T14:08:25;0.70;;;0.70;;
25952;SDS011;13750;50.804;8.764;2022-07-06T14:13:18;1.15;;;0.80;;
25952;SDS011;13750;50.804;8.764;2022-07-06T14:15:44;0.85;;;0.63;;
25952;SDS011;13750;50.804;8.764;2022-07-06T14:18:10;1.17;;;0.80;;
25952;SDS011;13750;50.804;8.764;2022-07-06T14:20:36;1.13;;;0.83;;
25952;SDS011;13750;50.804;8.764;2022-07-06T14:23:02;0.75;;;0.57;;
25952;SDS011;13750;50.804;8.764;2022-07-06T14:25:27;1.83;;;1.00;;
25952;SDS011;13750;50.804;8.764;2022-07-06T14:27:54;0.80;;;0.70;;
25952;SDS011;13750;50.804;8.764;2022-07-06T14:30:20;1.02;;;0.90;;
25952;SDS011;13750;50.804;8.764;2022-07-06T14:32:46;0.80;;;0.80;;
25952;SDS011;13750;50.804;8.764;2022-07-06T14:35:12;0.80;;;0.70;;
25952;SDS011;13750;50.804;8.764;2022-07-06T14:37:38;1.10;;;0.70;;
25952;SDS011;13750;50.804;8.764;2022-07-06T14:40:03;0.83;;;0.70;;
25952;SDS011;13750;50.804;8.764;2022-07-06T14:42:30;2.13;;;0.90;;
25952;SDS011;13750;50.804;8.764;2022-07-06T14:44:55;0.77;;;0.77;;
25952;SDS011;13750;50.804;8.764;2022-07-06T14:47:21;0.93;;;0.70;;
25952;SDS011;13750;50.804;8.764;2022-07-06T14:49:47;0.70;;;0.70;;
25952;SDS011;13750;50.804;8.764;2022-07-06T14:52:12;0.73;;;0.73;;
25952;SDS011;13750;50.804;8.764;2022-07-06T14:54:38;1.10;;;0.90;;
25952;SDS011;13750;50.804;8.764;2022-07-06T14:57:04;0.80;;;0.70;;
25952;SDS011;13750;50.804;8.764;2022-07-06T14:59:33;1.13;;;0.82;;
25952;SDS011;13750;50.804;8.764;2022-07-06T15:01:59;0.50;;;0.50;;
25952;SDS011;13750;50.804;8.764;2022-07-06T15:04:25;0.50;;;0.50;;
25952;SDS011;13750;50.804;8.764;2022-07-06T15:06:53;0.50;;;0.50;;
25952;SDS011;13750;50.804;8.764;2022-07-06T15:09:19;1.00;;;0.60;;
25952;SDS011;13750;50.804;8.764;2022-07-06T15:11:45;0.90;;;0.70;;
25952;SDS011;13750;50.804;8.764;2022-07-06T15:14:11;1.90;;;0.80;;
25952;SDS011;13750;50.804;8.764;2022-07-06T15:16:37;1.00;;;0.70;;
25952;SDS011;13750;50.804;8.764;2022-07-06T15:19:03;1.35;;;0.70;;
25952;SDS011;13750;50.804;8.764;2022-07-06T15:21:29;1.20;;;0.70;;
25952;SDS011;13750;50.804;8.764;2022-07-06T15:23:55;1.98;;;1.17;;